Senoia, Georgia
Current Conditions -  °F | °C
As of 5:24 AM on Saturday 20 Dec 2014 (Local Time) from KFFC Reporting Station
Light Rain Light Rain  
Wind Chill: 42°   Ceiling: 7000
Heat Index: 42°   Visibility: 3mi
Dew Point: 41°   Wind: 3mph
Humidity: 96%   Direction: 80°E
Pressure: 30.12"   Gusts: NA
Location:  33.3°N, 84.55°W
Report Text: KFFC 201024Z AUTO 08003KT 3SM -RA BR OVC070 06/05 A3012 RMK AO2 P0004 T00560050
Loading
Personal Weather Stations






























Interactive Weather Map New forecast layout! Learn more

10-Day Weather Forecast

Advertisements
Track Severe Weather on mobile